createdAt,value
2018-11-11T00:00:25.936Z,20.90
2018-11-11T00:01:25.874Z,20.20
2018-11-11T00:02:25.811Z,19.80
2018-11-11T00:03:25.764Z,19.90
2018-11-11T00:04:25.679Z,19.70
2018-11-11T00:05:25.616Z,19.30
2018-11-11T00:06:25.556Z,19.20
2018-11-11T00:07:25.489Z,19.20
2018-11-11T00:08:25.429Z,19.30
2018-11-11T00:09:25.362Z,19.40
2018-11-11T00:10:25.302Z,19.30
2018-11-11T00:11:25.238Z,19.50
2018-11-11T00:12:25.168Z,19.20
2018-11-11T00:13:25.103Z,19.20
2018-11-11T00:14:25.041Z,20.00
2018-11-11T00:15:24.981Z,19.60
2018-11-11T00:16:24.915Z,19.90
2018-11-11T00:17:24.847Z,20.70
2018-11-11T00:18:24.782Z,20.00
2018-11-11T00:19:24.720Z,20.30
2018-11-11T00:20:24.654Z,20.80
2018-11-11T00:21:24.589Z,19.50
2018-11-11T00:22:24.541Z,20.40
2018-11-11T00:23:24.461Z,19.20
2018-11-11T00:24:24.398Z,19.30
2018-11-11T00:25:24.335Z,19.10
2018-11-11T00:26:24.270Z,17.30
2018-11-11T00:27:24.202Z,17.30
2018-11-11T00:28:24.207Z,17.20
2018-11-11T00:29:24.085Z,17.40
2018-11-11T00:30:24.023Z,16.30
2018-11-11T00:31:23.959Z,17.10
2018-11-11T00:32:23.884Z,16.70
2018-11-11T00:33:23.836Z,17.10
2018-11-11T00:34:23.761Z,16.80
2018-11-11T00:35:23.691Z,17.20
2018-11-11T00:36:23.626Z,16.80
2018-11-11T00:37:23.567Z,17.30
2018-11-11T00:38:23.504Z,17.60
2018-11-11T00:39:23.444Z,16.50
2018-11-11T00:40:23.369Z,17.10
2018-11-11T00:41:23.314Z,17.00
2018-11-11T00:42:23.256Z,16.70
2018-11-11T00:43:23.185Z,17.60
2018-11-11T00:44:23.108Z,17.70
2018-11-11T00:45:23.051Z,17.70
2018-11-11T00:46:22.991Z,17.20
2018-11-11T00:47:22.919Z,17.00
2018-11-11T00:48:22.856Z,16.80
2018-11-11T00:49:22.806Z,17.30
2018-11-11T00:50:22.725Z,17.90
2018-11-11T00:51:22.687Z,16.90
2018-11-11T00:52:22.617Z,18.10
2018-11-11T00:53:22.535Z,17.50
2018-11-11T00:54:22.473Z,17.50
2018-11-11T00:55:22.408Z,18.30
2018-11-11T00:56:22.347Z,18.10
2018-11-11T00:57:22.281Z,18.50
2018-11-11T00:58:22.213Z,18.80
2018-11-11T00:59:22.155Z,18.50
2018-11-11T01:00:22.091Z,17.70
2018-11-11T01:01:22.026Z,18.00
2018-11-11T01:02:21.965Z,17.30
2018-11-11T01:03:21.897Z,18.40
2018-11-11T01:04:21.829Z,18.00
2018-11-11T01:05:21.771Z,18.10
2018-11-11T01:06:21.706Z,16.30
2018-11-11T01:07:21.636Z,17.30
2018-11-11T01:08:21.574Z,17.60
2018-11-11T01:09:21.507Z,17.90
2018-11-11T01:10:21.446Z,16.80
2018-11-11T01:11:21.383Z,17.20
2018-11-11T01:12:21.426Z,17.70
2018-11-11T01:13:21.247Z,17.30
2018-11-11T01:14:21.217Z,16.40
2018-11-11T01:15:21.143Z,17.00
2018-11-11T01:16:21.058Z,18.40
2018-11-11T01:17:20.996Z,18.00
2018-11-11T01:18:20.932Z,16.50
2018-11-11T01:19:20.866Z,17.70
2018-11-11T01:20:20.803Z,17.30
2018-11-11T01:21:20.739Z,18.30
2018-11-11T01:22:20.683Z,18.50
2018-11-11T01:23:20.610Z,17.80
2018-11-11T01:24:20.550Z,17.90
2018-11-11T01:25:20.497Z,18.40
2018-11-11T01:26:20.413Z,18.80
2018-11-11T01:27:20.352Z,17.50
2018-11-11T01:28:20.311Z,16.20
2018-11-11T01:29:20.224Z,17.40
2018-11-11T01:30:20.161Z,18.00
2018-11-11T01:31:20.115Z,17.60
2018-11-11T01:32:20.036Z,18.30
2018-11-11T01:33:19.966Z,18.70
2018-11-11T01:34:19.904Z,17.90
2018-11-11T01:35:19.839Z,18.50
2018-11-11T01:36:19.772Z,18.50
2018-11-11T01:37:19.708Z,18.00
2018-11-11T01:38:19.646Z,17.70
2018-11-11T01:39:19.582Z,18.20
2018-11-11T01:40:19.516Z,18.70
2018-11-11T01:41:19.453Z,18.30
2018-11-11T01:42:19.388Z,17.80
2018-11-11T01:43:19.324Z,18.40
2018-11-11T01:44:19.259Z,18.60
2018-11-11T01:45:19.194Z,17.50
2018-11-11T01:46:19.132Z,18.40
2018-11-11T01:47:19.084Z,18.60
2018-11-11T01:48:19.019Z,18.50
2018-11-11T01:49:18.935Z,19.30
2018-11-11T01:50:18.874Z,18.70
2018-11-11T01:51:18.832Z,17.90
2018-11-11T01:52:18.746Z,18.70
2018-11-11T01:53:18.688Z,17.80
2018-11-11T01:54:18.615Z,18.10
2018-11-11T01:55:18.555Z,18.30
2018-11-11T01:56:18.489Z,18.70
2018-11-11T01:57:18.423Z,18.40
2018-11-11T01:58:18.363Z,19.20
2018-11-11T01:59:18.291Z,18.90
2018-11-11T02:00:18.230Z,18.70
2018-11-11T02:01:18.164Z,19.40
2018-11-11T02:02:18.099Z,19.00
2018-11-11T02:03:18.039Z,18.80
2018-11-11T02:04:17.971Z,18.70
2018-11-11T02:05:17.912Z,18.20
2018-11-11T02:06:17.839Z,19.50
2018-11-11T02:07:17.783Z,18.80
2018-11-11T02:08:17.714Z,18.60
2018-11-11T02:09:17.660Z,18.40
2018-11-11T02:10:17.592Z,18.70
2018-11-11T02:11:17.528Z,19.70
2018-11-11T02:12:17.454Z,19.10
2018-11-11T02:13:17.393Z,19.00
2018-11-11T02:14:17.343Z,19.30
2018-11-11T02:15:17.264Z,18.90
2018-11-11T02:16:17.202Z,17.70
2018-11-11T02:17:17.135Z,18.80
2018-11-11T02:18:17.073Z,18.80
2018-11-11T02:19:17.016Z,18.30
2018-11-11T02:20:16.952Z,19.80
2018-11-11T02:21:16.980Z,18.80
2018-11-11T02:22:16.814Z,18.30
2018-11-11T02:23:16.752Z,18.90
2018-11-11T02:24:16.701Z,18.60
2018-11-11T02:25:16.620Z,18.60
2018-11-11T02:26:16.561Z,19.00
2018-11-11T02:27:16.496Z,18.80
2018-11-11T02:28:16.431Z,18.40
2018-11-11T02:29:16.368Z,18.90
2018-11-11T02:30:16.302Z,18.50
2018-11-11T02:31:16.239Z,18.20
2018-11-11T02:32:16.178Z,18.80
2018-11-11T02:33:16.152Z,18.40
2018-11-11T02:34:16.049Z,18.20
2018-11-11T02:35:15.978Z,18.10
2018-11-11T02:36:15.916Z,18.50
2018-11-11T02:37:15.879Z,18.10
2018-11-11T02:38:15.791Z,18.40
2018-11-11T02:39:15.722Z,19.10
2018-11-11T02:40:15.660Z,18.10
2018-11-11T02:41:15.598Z,19.50
2018-11-11T02:42:15.538Z,18.80
2018-11-11T02:43:15.472Z,19.20
2018-11-11T02:44:15.401Z,18.80
2018-11-11T02:45:15.339Z,19.10
2018-11-11T02:46:15.289Z,19.20
2018-11-11T02:47:15.213Z,20.00
2018-11-11T02:48:15.143Z,19.60
2018-11-11T02:49:15.082Z,19.60
2018-11-11T02:50:15.018Z,19.20
2018-11-11T02:51:14.956Z,19.40
2018-11-11T02:52:14.889Z,18.10
2018-11-11T02:53:14.827Z,19.10
2018-11-11T02:54:14.762Z,19.40
2018-11-11T02:55:14.702Z,18.30
2018-11-11T02:56:14.640Z,18.30
2018-11-11T02:57:14.569Z,19.40
2018-11-11T02:58:14.512Z,18.40
2018-11-11T02:59:14.440Z,18.20
2018-11-11T03:00:14.384Z,19.10
2018-11-11T03:01:14.312Z,18.50
2018-11-11T03:02:14.248Z,18.80
2018-11-11T03:03:14.185Z,18.40
2018-11-11T03:04:14.185Z,20.10
2018-11-11T03:05:14.055Z,18.70
2018-11-11T03:06:13.991Z,19.20
2018-11-11T03:07:13.937Z,20.00
2018-11-11T03:08:13.864Z,19.70
2018-11-11T03:09:13.809Z,19.00
2018-11-11T03:10:13.738Z,19.70
2018-11-11T03:11:13.668Z,20.00
2018-11-11T03:12:13.608Z,19.30
2018-11-11T03:13:13.557Z,19.40
2018-11-11T03:14:13.480Z,19.70
2018-11-11T03:15:13.418Z,20.30
2018-11-11T03:16:13.348Z,19.10
2018-11-11T03:17:13.285Z,19.80
2018-11-11T03:18:13.223Z,19.80
2018-11-11T03:19:13.155Z,19.00
2018-11-11T03:20:13.092Z,20.10
2018-11-11T03:21:13.022Z,19.40
2018-11-11T03:22:12.964Z,20.10
2018-11-11T03:23:12.907Z,19.30
2018-11-11T03:24:12.838Z,19.70
2018-11-11T03:25:12.775Z,19.40
2018-11-11T03:26:12.706Z,20.90
2018-11-11T03:27:12.643Z,20.20
2018-11-11T03:28:12.573Z,20.20
2018-11-11T03:29:12.515Z,19.60
2018-11-11T03:30:12.451Z,20.30
2018-11-11T03:31:12.397Z,20.10
2018-11-11T03:32:12.330Z,20.60
2018-11-11T03:33:12.267Z,21.00
2018-11-11T03:34:12.190Z,21.30
2018-11-11T03:35:12.155Z,22.10
2018-11-11T03:36:12.088Z,21.30
2018-11-11T03:37:11.999Z,21.10
2018-11-11T03:38:11.940Z,21.20
2018-11-11T03:39:11.872Z,21.40
2018-11-11T03:40:11.812Z,21.40
2018-11-11T03:41:11.747Z,21.40
2018-11-11T03:42:11.688Z,21.90
2018-11-11T03:43:11.624Z,21.80
2018-11-11T03:44:11.581Z,22.10
2018-11-11T03:45:11.485Z,20.90
2018-11-11T03:46:11.432Z,20.80
2018-11-11T03:47:11.355Z,21.20
2018-11-11T03:48:11.291Z,20.80
2018-11-11T03:49:11.227Z,21.40
2018-11-11T03:50:11.164Z,21.30
2018-11-11T03:51:11.103Z,20.60
2018-11-11T03:52:11.034Z,20.50
2018-11-11T03:53:10.970Z,21.50
2018-11-11T03:54:10.908Z,21.50
2018-11-11T03:55:10.842Z,20.80
2018-11-11T03:56:10.784Z,20.50
2018-11-11T03:57:10.709Z,19.40
2018-11-11T03:58:10.649Z,21.50
2018-11-11T03:59:10.585Z,19.90
2018-11-11T04:00:10.518Z,19.80
2018-11-11T04:01:10.453Z,19.00
2018-11-11T04:02:10.390Z,20.20
2018-11-11T04:03:10.329Z,19.50
2018-11-11T04:04:10.267Z,20.20
2018-11-11T04:05:10.201Z,19.70
2018-11-11T04:06:10.140Z,19.30
2018-11-11T04:07:10.067Z,19.10
2018-11-11T04:08:10.005Z,19.50
2018-11-11T04:09:09.943Z,18.60
2018-11-11T04:10:09.889Z,18.00
2018-11-11T04:11:09.812Z,18.20
2018-11-11T04:12:09.752Z,18.30
2018-11-11T04:13:09.682Z,18.30
2018-11-11T04:14:09.626Z,19.40
2018-11-11T04:15:09.554Z,17.90
2018-11-11T04:16:09.492Z,18.20
2018-11-11T04:17:09.423Z,18.40
2018-11-11T04:18:09.360Z,18.70
2018-11-11T04:19:09.305Z,18.20
2018-11-11T04:20:09.229Z,18.80
2018-11-11T04:21:09.166Z,18.20
2018-11-11T04:22:09.104Z,18.70
2018-11-11T04:23:09.069Z,19.70
2018-11-11T04:24:08.975Z,18.70
2018-11-11T04:25:08.910Z,18.60
2018-11-11T04:26:08.849Z,18.90
2018-11-11T04:27:08.776Z,18.60
2018-11-11T04:28:08.722Z,18.90
2018-11-11T04:29:08.662Z,18.60
2018-11-11T04:30:08.584Z,18.40
2018-11-11T04:31:08.524Z,18.90
2018-11-11T04:32:08.459Z,19.40
2018-11-11T04:33:08.397Z,18.60
2018-11-11T04:34:08.332Z,18.60
2018-11-11T04:35:08.275Z,18.60
2018-11-11T04:36:08.202Z,19.00
2018-11-11T04:37:08.141Z,19.50
2018-11-11T04:38:08.075Z,18.90
2018-11-11T04:39:08.064Z,18.60
2018-11-11T04:40:07.942Z,19.20
2018-11-11T04:41:07.879Z,18.90
2018-11-11T04:42:07.813Z,18.60
2018-11-11T04:43:07.751Z,18.70
2018-11-11T04:44:07.689Z,18.80
2018-11-11T04:45:07.622Z,19.00
2018-11-11T04:46:07.558Z,19.00
2018-11-11T04:47:07.495Z,19.50
2018-11-11T04:48:07.429Z,18.90
2018-11-11T04:49:07.403Z,19.40
2018-11-11T04:50:07.295Z,19.30
2018-11-11T04:51:07.235Z,19.70
2018-11-11T04:52:07.178Z,19.50
2018-11-11T04:53:07.105Z,18.50
2018-11-11T04:54:07.045Z,19.30
2018-11-11T04:55:06.981Z,19.10
2018-11-11T04:56:06.912Z,17.80
2018-11-11T04:57:06.848Z,18.50
2018-11-11T04:58:06.784Z,18.80
2018-11-11T04:59:06.720Z,18.50
2018-11-11T05:00:06.664Z,19.60
2018-11-11T05:01:06.603Z,19.90
2018-11-11T05:02:06.543Z,19.60
2018-11-11T05:03:06.459Z,19.90
2018-11-11T05:04:06.396Z,20.70
2018-11-11T05:05:06.332Z,19.80
2018-11-11T05:06:06.271Z,20.10
2018-11-11T05:07:06.203Z,19.30
2018-11-11T05:08:06.135Z,19.10
2018-11-11T05:09:06.075Z,19.90
2018-11-11T05:10:06.020Z,19.80
2018-11-11T05:11:05.943Z,20.50
2018-11-11T05:12:05.882Z,19.20
2018-11-11T05:13:05.813Z,19.60
2018-11-11T05:14:05.752Z,18.90
2018-11-11T05:15:05.687Z,19.00
2018-11-11T05:16:05.623Z,19.40
2018-11-11T05:17:05.558Z,18.80
2018-11-11T05:18:05.495Z,19.20
2018-11-11T05:19:05.440Z,19.50
2018-11-11T05:20:05.369Z,19.40
2018-11-11T05:21:05.302Z,19.90
2018-11-11T05:22:05.239Z,19.60
2018-11-11T05:23:05.176Z,19.50
2018-11-11T05:24:05.107Z,20.10
2018-11-11T05:25:05.050Z,19.60
2018-11-11T05:26:04.979Z,19.80
2018-11-11T05:27:04.910Z,20.00
2018-11-11T05:28:04.849Z,18.80
2018-11-11T05:29:04.783Z,19.20
2018-11-11T05:30:04.726Z,20.20
2018-11-11T05:31:04.655Z,20.00
2018-11-11T05:32:04.598Z,19.00
2018-11-11T05:33:04.521Z,20.70
2018-11-11T05:34:04.461Z,20.40
2018-11-11T05:35:04.413Z,19.50
2018-11-11T05:36:04.331Z,19.50
2018-11-11T05:37:04.265Z,20.10
2018-11-11T05:38:04.204Z,20.70
2018-11-11T05:39:04.142Z,19.80
2018-11-11T05:40:04.076Z,20.40
2018-11-11T05:41:04.013Z,18.90
2018-11-11T05:42:03.953Z,19.20
2018-11-11T05:43:03.878Z,19.10
2018-11-11T05:44:03.818Z,18.20
2018-11-11T05:45:03.761Z,18.40
2018-11-11T05:46:03.686Z,18.10
2018-11-11T05:47:03.623Z,18.90
2018-11-11T05:48:03.580Z,19.00
2018-11-11T05:49:03.496Z,18.80
2018-11-11T05:50:03.433Z,18.80
2018-11-11T05:51:03.370Z,18.50
2018-11-11T05:52:03.317Z,18.50
2018-11-11T05:53:03.231Z,18.20
2018-11-11T05:54:03.185Z,17.80
2018-11-11T05:55:03.109Z,17.80
2018-11-11T05:56:03.038Z,18.20
2018-11-11T05:57:02.979Z,18.30
2018-11-11T05:58:02.913Z,18.70
2018-11-11T05:59:02.876Z,18.80
2018-11-11T06:00:02.784Z,18.00
2018-11-11T06:01:02.722Z,17.90
2018-11-11T06:02:02.660Z,18.20
2018-11-11T06:03:02.596Z,18.20
2018-11-11T06:04:02.530Z,18.40
2018-11-11T06:05:02.470Z,17.90
2018-11-11T06:06:02.394Z,16.80
2018-11-11T06:07:02.332Z,17.60
2018-11-11T06:08:02.267Z,17.00
2018-11-11T06:09:02.202Z,17.10
2018-11-11T06:10:02.139Z,17.10
2018-11-11T06:11:02.078Z,17.20
2018-11-11T06:12:02.023Z,17.80
2018-11-11T06:13:01.949Z,17.40
2018-11-11T06:14:01.885Z,17.20
2018-11-11T06:15:01.828Z,17.60
2018-11-11T06:16:01.747Z,17.00
2018-11-11T06:17:01.686Z,17.60
2018-11-11T06:18:01.664Z,18.10
2018-11-11T06:19:01.559Z,18.10
2018-11-11T06:20:01.493Z,18.10
2018-11-11T06:21:01.432Z,17.50
2018-11-11T06:22:01.374Z,16.80
2018-11-11T06:23:01.303Z,17.70
2018-11-11T06:24:01.234Z,17.90
2018-11-11T06:25:01.186Z,17.80
2018-11-11T06:26:01.102Z,17.50
2018-11-11T06:27:01.041Z,17.70
2018-11-11T06:28:00.999Z,18.10
2018-11-11T06:29:00.912Z,18.10
2018-11-11T06:30:00.851Z,17.80
2018-11-11T06:31:00.784Z,17.60
2018-11-11T06:32:00.720Z,17.90
2018-11-11T06:33:00.658Z,17.40
2018-11-11T06:34:00.642Z,17.30
2018-11-11T06:35:00.521Z,17.70
2018-11-11T06:36:00.458Z,17.10
2018-11-11T06:37:00.394Z,17.40
2018-11-11T06:38:00.342Z,16.10
2018-11-11T06:39:00.265Z,16.70
2018-11-11T06:40:00.200Z,17.50
2018-11-11T06:41:00.137Z,17.10
2018-11-11T06:42:00.074Z,16.80
2018-11-11T06:43:00.011Z,16.80
2018-11-11T06:43:59.942Z,17.10
2018-11-11T06:44:59.882Z,17.30
2018-11-11T06:45:59.809Z,16.30
2018-11-11T06:46:59.748Z,16.50
2018-11-11T06:47:59.702Z,17.70
2018-11-11T06:48:59.626Z,17.30
2018-11-11T06:49:59.557Z,16.60
2018-11-11T06:50:59.493Z,16.50
2018-11-11T06:51:59.431Z,16.40
2018-11-11T06:52:59.360Z,16.60
2018-11-11T06:53:59.295Z,16.70
2018-11-11T06:54:59.244Z,16.20
2018-11-11T06:55:59.170Z,16.90
2018-11-11T06:56:59.120Z,16.40
2018-11-11T06:57:59.077Z,17.30
2018-11-11T06:58:58.972Z,17.10
2018-11-11T06:59:58.909Z,16.60
2018-11-11T07:00:58.863Z,16.70
2018-11-11T07:01:58.784Z,16.20
2018-11-11T07:02:58.715Z,17.20
2018-11-11T07:03:58.651Z,17.20
2018-11-11T07:04:58.588Z,16.20
2018-11-11T07:05:58.530Z,16.90
2018-11-11T07:06:58.467Z,16.80
2018-11-11T07:07:58.394Z,16.20
2018-11-11T07:08:58.325Z,16.20
2018-11-11T07:09:58.265Z,16.20
2018-11-11T07:10:58.201Z,16.10
2018-11-11T07:11:58.137Z,17.10
2018-11-11T07:12:58.071Z,16.70
2018-11-11T07:13:58.077Z,16.40
2018-11-11T07:14:57.944Z,15.70
2018-11-11T07:15:57.882Z,16.50
2018-11-11T07:16:57.824Z,15.90
2018-11-11T07:17:57.755Z,15.50
2018-11-11T07:18:57.681Z,15.90
2018-11-11T07:19:57.620Z,15.70
2018-11-11T07:20:57.574Z,16.20
2018-11-11T07:21:57.492Z,15.40
2018-11-11T07:22:57.433Z,15.30
2018-11-11T07:23:57.424Z,16.00
2018-11-11T07:24:57.299Z,15.30
2018-11-11T07:25:57.236Z,15.20
2018-11-11T07:26:57.171Z,15.60
2018-11-11T07:27:57.105Z,15.30
2018-11-11T07:28:57.048Z,15.20
2018-11-11T07:29:56.988Z,15.10
2018-11-11T07:30:56.924Z,14.90
2018-11-11T07:31:56.848Z,15.60
2018-11-11T07:32:56.786Z,15.90
2018-11-11T07:33:56.721Z,16.30
2018-11-11T07:34:56.656Z,15.00
2018-11-11T07:35:56.622Z,15.30
2018-11-11T07:36:56.533Z,15.10
2018-11-11T07:37:56.469Z,15.20
2018-11-11T07:38:56.405Z,15.10
2018-11-11T07:39:56.338Z,15.20
2018-11-11T07:40:56.277Z,15.00
2018-11-11T07:41:56.207Z,15.00
2018-11-11T07:42:56.144Z,14.70
2018-11-11T07:43:56.085Z,14.50
2018-11-11T07:44:56.013Z,15.20
2018-11-11T07:45:55.952Z,14.90
2018-11-11T07:46:55.891Z,14.40
2018-11-11T07:47:55.948Z,14.80
2018-11-11T07:48:55.756Z,15.30
2018-11-11T07:49:55.693Z,15.30
2018-11-11T07:50:55.633Z,14.60
2018-11-11T07:51:55.583Z,15.00
2018-11-11T07:52:55.521Z,14.40
2018-11-11T07:53:55.442Z,14.10
2018-11-11T07:54:55.450Z,14.70
2018-11-11T07:55:55.309Z,14.40
2018-11-11T07:56:55.252Z,15.00
2018-11-11T07:57:55.178Z,14.40
2018-11-11T07:58:55.116Z,15.10
2018-11-11T07:59:55.055Z,14.60
2018-11-11T08:00:54.988Z,14.10
2018-11-11T08:01:54.928Z,14.70
2018-11-11T08:02:54.859Z,15.20
2018-11-11T08:03:54.794Z,14.80
2018-11-11T08:04:54.728Z,14.70
2018-11-11T08:05:54.674Z,14.90
2018-11-11T08:06:54.616Z,14.90
2018-11-11T08:07:54.537Z,14.90
2018-11-11T08:08:54.475Z,15.20
2018-11-11T08:09:54.412Z,14.60
2018-11-11T08:10:54.380Z,14.60
2018-11-11T08:11:54.282Z,14.90
2018-11-11T08:12:54.222Z,15.20
2018-11-11T08:13:54.157Z,14.90
2018-11-11T08:14:54.094Z,14.90
2018-11-11T08:15:54.028Z,15.00
2018-11-11T08:16:54.095Z,14.50
2018-11-11T08:17:53.896Z,15.00
2018-11-11T08:18:53.834Z,15.10
2018-11-11T08:19:53.788Z,14.50
2018-11-11T08:20:53.705Z,14.20
2018-11-11T08:21:53.642Z,14.40
2018-11-11T08:22:53.580Z,14.00
2018-11-11T08:23:53.515Z,14.00
2018-11-11T08:24:53.452Z,13.70
2018-11-11T08:25:53.387Z,14.20
2018-11-11T08:26:53.326Z,13.30
2018-11-11T08:27:53.266Z,13.10
2018-11-11T08:28:53.204Z,13.50
2018-11-11T08:29:53.140Z,13.00
2018-11-11T08:30:53.065Z,12.70
2018-11-11T08:31:53.005Z,12.70
2018-11-11T08:32:52.946Z,12.60
2018-11-11T08:33:52.875Z,12.80
2018-11-11T08:34:52.820Z,13.40
2018-11-11T08:35:52.748Z,13.50
2018-11-11T08:36:52.686Z,12.20
2018-11-11T08:37:52.622Z,12.50
2018-11-11T08:38:52.559Z,11.90
2018-11-11T08:39:52.494Z,12.10
2018-11-11T08:40:52.436Z,12.00
2018-11-11T08:41:52.365Z,12.00
2018-11-11T08:42:52.305Z,12.30
2018-11-11T08:43:52.239Z,12.70
2018-11-11T08:44:52.193Z,12.40
2018-11-11T08:45:52.113Z,11.80
2018-11-11T08:46:52.048Z,13.40
2018-11-11T08:47:51.985Z,12.70
2018-11-11T08:48:51.938Z,12.40
2018-11-11T08:49:51.856Z,12.50
2018-11-11T08:50:51.794Z,12.50
2018-11-11T08:51:51.729Z,12.60
2018-11-11T08:52:51.664Z,12.20
2018-11-11T08:53:51.600Z,11.90
2018-11-11T08:54:51.539Z,12.00
2018-11-11T08:55:51.474Z,12.40
2018-11-11T08:56:51.429Z,11.80
2018-11-11T08:57:51.397Z,12.20
2018-11-11T08:58:51.291Z,11.60
2018-11-11T08:59:51.214Z,11.80
2018-11-11T09:00:51.157Z,11.40
2018-11-11T09:01:51.105Z,12.10
2018-11-11T09:02:51.030Z,11.60
2018-11-11T09:03:50.966Z,12.30
2018-11-11T09:04:50.921Z,12.10
2018-11-11T09:05:50.839Z,12.60
2018-11-11T09:06:50.778Z,13.00
2018-11-11T09:07:50.710Z,12.70
2018-11-11T09:08:50.648Z,13.20
2018-11-11T09:09:50.587Z,12.60
2018-11-11T09:10:50.521Z,12.20
2018-11-11T09:11:50.456Z,11.80
2018-11-11T09:12:50.391Z,12.30
2018-11-11T09:13:50.339Z,13.10
2018-11-11T09:14:50.270Z,14.00
2018-11-11T09:15:50.198Z,13.40
2018-11-11T09:16:50.141Z,12.80
2018-11-11T09:17:50.090Z,13.40
2018-11-11T09:18:50.017Z,13.50
2018-11-11T09:19:49.945Z,12.60
2018-11-11T09:20:49.888Z,13.10
2018-11-11T09:21:49.819Z,13.10
2018-11-11T09:22:49.758Z,13.30
2018-11-11T09:23:49.739Z,13.00
2018-11-11T09:24:49.635Z,13.40
2018-11-11T09:25:49.576Z,13.40
2018-11-11T09:26:49.513Z,14.00
2018-11-11T09:27:49.439Z,13.90
2018-11-11T09:28:49.372Z,13.90
2018-11-11T09:29:49.313Z,13.90
2018-11-11T09:30:49.260Z,13.70
2018-11-11T09:31:49.184Z,14.90
2018-11-11T09:32:49.125Z,13.30
2018-11-11T09:33:49.056Z,14.00
2018-11-11T09:34:48.993Z,14.30
2018-11-11T09:35:48.928Z,13.90
2018-11-11T09:36:48.867Z,13.90
2018-11-11T09:37:48.802Z,13.70
2018-11-11T09:38:48.773Z,14.40
2018-11-11T09:39:48.672Z,13.40
2018-11-11T09:40:48.620Z,14.70
2018-11-11T09:41:48.546Z,14.20
2018-11-11T09:42:48.493Z,13.90
2018-11-11T09:43:48.421Z,14.50
2018-11-11T09:44:48.357Z,14.30
2018-11-11T09:45:48.295Z,13.70
2018-11-11T09:46:48.229Z,13.90
2018-11-11T09:47:48.187Z,15.00
2018-11-11T09:48:48.102Z,14.80
2018-11-11T09:49:48.041Z,14.50
2018-11-11T09:50:47.973Z,14.70
2018-11-11T09:51:47.918Z,14.80
2018-11-11T09:52:47.870Z,15.10
2018-11-11T09:53:47.824Z,14.00
2018-11-11T09:54:47.723Z,14.10
2018-11-11T09:55:47.657Z,14.50
2018-11-11T09:56:47.592Z,14.40
2018-11-11T09:57:47.532Z,14.60
2018-11-11T09:58:47.510Z,14.50
2018-11-11T09:59:47.441Z,14.30
2018-11-11T10:00:47.341Z,14.80
2018-11-11T10:01:47.280Z,15.10
2018-11-11T10:02:47.217Z,15.20
2018-11-11T10:03:47.147Z,14.60
2018-11-11T10:04:47.108Z,15.70
2018-11-11T10:05:47.022Z,16.40
2018-11-11T10:06:47.100Z,16.40
2018-11-11T10:07:46.899Z,17.40
2018-11-11T10:08:46.829Z,16.90
2018-11-11T10:09:46.787Z,16.20
2018-11-11T10:10:46.791Z,17.20
2018-11-11T10:11:46.640Z,18.30
2018-11-11T10:12:46.625Z,18.50
2018-11-11T10:13:46.508Z,17.10
2018-11-11T10:14:46.449Z,18.30
2018-11-11T10:15:46.397Z,19.30
2018-11-11T10:16:46.321Z,19.00
2018-11-11T10:17:46.258Z,18.70
2018-11-11T10:18:46.195Z,19.30
2018-11-11T10:19:46.132Z,19.30
2018-11-11T10:20:46.094Z,19.30
2018-11-11T10:21:46.011Z,19.50
2018-11-11T10:22:45.941Z,20.00
2018-11-11T10:23:45.879Z,18.50
2018-11-11T10:24:45.824Z,19.10
2018-11-11T10:25:45.756Z,18.70
2018-11-11T10:26:45.687Z,20.10
2018-11-11T10:27:45.638Z,19.20
2018-11-11T10:28:45.581Z,20.00
2018-11-11T10:29:45.565Z,19.60
2018-11-11T10:30:45.436Z,20.10
2018-11-11T10:31:45.370Z,20.30
2018-11-11T10:32:45.303Z,20.50
2018-11-11T10:33:45.243Z,20.60
2018-11-11T10:34:45.179Z,20.30
2018-11-11T10:35:45.117Z,21.00
2018-11-11T10:36:45.056Z,20.60
2018-11-11T10:37:44.989Z,20.10
2018-11-11T10:38:44.924Z,21.60
2018-11-11T10:39:44.868Z,20.60
2018-11-11T10:40:44.808Z,20.00
2018-11-11T10:41:44.734Z,19.90
2018-11-11T10:42:44.668Z,20.20
2018-11-11T10:43:44.606Z,21.20
2018-11-11T10:44:44.546Z,21.20
2018-11-11T10:45:44.480Z,21.20
2018-11-11T10:46:44.415Z,20.20
2018-11-11T10:47:44.352Z,20.60
2018-11-11T10:48:44.291Z,22.40
2018-11-11T10:49:44.226Z,22.50
2018-11-11T10:50:44.166Z,21.00
2018-11-11T10:51:44.098Z,21.40
2018-11-11T10:52:44.034Z,21.60
2018-11-11T10:53:43.975Z,21.20
2018-11-11T10:54:43.921Z,19.10
2018-11-11T10:55:43.846Z,19.20
2018-11-11T10:56:43.792Z,19.10
2018-11-11T10:57:43.718Z,18.00
2018-11-11T10:58:43.670Z,17.90
2018-11-11T10:59:43.594Z,18.50
2018-11-11T11:00:43.544Z,16.80
2018-11-11T11:01:43.465Z,16.60
2018-11-11T11:02:43.402Z,16.50
2018-11-11T11:03:43.339Z,16.90
2018-11-11T11:04:43.275Z,17.20
2018-11-11T11:05:43.214Z,16.50
2018-11-11T11:06:43.151Z,16.50
2018-11-11T11:07:43.088Z,16.00
2018-11-11T11:08:43.022Z,16.50
2018-11-11T11:09:42.961Z,15.00
2018-11-11T11:10:42.902Z,15.70
2018-11-11T11:11:42.835Z,15.20
2018-11-11T11:12:42.772Z,14.80
2018-11-11T11:13:42.757Z,15.60
2018-11-11T11:14:42.647Z,15.30
2018-11-11T11:15:42.603Z,14.90
2018-11-11T11:16:42.518Z,15.40
2018-11-11T11:17:42.468Z,15.40
2018-11-11T11:18:42.396Z,15.80
2018-11-11T11:19:42.329Z,14.40
2018-11-11T11:20:42.265Z,14.80
2018-11-11T11:21:42.206Z,14.70
2018-11-11T11:22:42.143Z,15.30
2018-11-11T11:23:42.078Z,14.50
2018-11-11T11:24:42.016Z,14.00
2018-11-11T11:25:42.019Z,14.70
2018-11-11T11:26:41.891Z,13.50
2018-11-11T11:27:41.829Z,14.90
2018-11-11T11:28:41.767Z,14.20
2018-11-11T11:29:41.704Z,14.00
2018-11-11T11:30:41.642Z,14.50
2018-11-11T11:31:41.732Z,14.80
2018-11-11T11:32:41.517Z,13.80
2018-11-11T11:33:41.451Z,13.90
2018-11-11T11:34:41.393Z,14.30
2018-11-11T11:35:41.392Z,13.70
2018-11-11T11:36:41.273Z,13.70
2018-11-11T11:37:41.201Z,14.40
2018-11-11T11:38:41.141Z,13.40
2018-11-11T11:39:41.073Z,13.30
2018-11-11T11:40:41.017Z,13.70
2018-11-11T11:41:40.966Z,14.00
2018-11-11T11:42:40.884Z,13.90
2018-11-11T11:43:40.831Z,13.70
2018-11-11T11:44:40.773Z,13.40
2018-11-11T11:45:40.700Z,13.80
2018-11-11T11:46:40.638Z,13.70
2018-11-11T11:47:40.580Z,13.60
2018-11-11T11:48:40.515Z,14.10
2018-11-11T11:49:40.452Z,14.00
2018-11-11T11:50:40.396Z,14.30
2018-11-11T11:51:40.340Z,14.30
2018-11-11T11:52:40.268Z,14.30
2018-11-11T11:53:40.201Z,13.90
2018-11-11T11:54:40.138Z,14.40
2018-11-11T11:55:40.074Z,13.00
2018-11-11T11:56:40.010Z,12.70
2018-11-11T11:57:39.952Z,13.80
2018-11-11T11:58:39.896Z,13.70
2018-11-11T11:59:39.825Z,12.90
2018-11-11T12:00:39.765Z,12.20
2018-11-11T12:01:39.702Z,13.40
2018-11-11T12:02:39.638Z,13.00
2018-11-11T12:03:39.575Z,12.40
2018-11-11T12:04:39.511Z,13.00
2018-11-11T12:05:39.464Z,13.40
2018-11-11T12:06:39.400Z,12.10
2018-11-11T12:07:39.324Z,12.20
2018-11-11T12:08:39.372Z,11.90
2018-11-11T12:09:39.204Z,12.00
2018-11-11T12:10:39.144Z,11.60
2018-11-11T12:11:39.077Z,11.70
2018-11-11T12:12:39.036Z,11.60
2018-11-11T12:13:38.954Z,12.00
2018-11-11T12:14:38.907Z,12.40
2018-11-11T12:15:38.828Z,12.20
2018-11-11T12:16:38.847Z,12.20
2018-11-11T12:17:38.707Z,11.20
2018-11-11T12:18:38.645Z,11.10
2018-11-11T12:19:38.576Z,11.90
2018-11-11T12:20:38.517Z,11.20
2018-11-11T12:21:38.468Z,11.80
2018-11-11T12:22:38.391Z,11.60
2018-11-11T12:23:38.328Z,11.80
2018-11-11T12:24:38.268Z,11.80
2018-11-11T12:25:38.209Z,11.00
2018-11-11T12:26:38.144Z,11.30
2018-11-11T12:27:38.081Z,11.20
2018-11-11T12:28:38.019Z,11.50
2018-11-11T12:29:37.957Z,11.10
2018-11-11T12:30:37.919Z,11.20
2018-11-11T12:31:37.833Z,10.80
2018-11-11T12:32:37.770Z,11.10
2018-11-11T12:33:37.707Z,10.90
2018-11-11T12:34:37.645Z,11.20
2018-11-11T12:35:37.584Z,10.70
2018-11-11T12:36:37.520Z,10.70
2018-11-11T12:37:37.457Z,11.20
2018-11-11T12:38:37.398Z,10.40
2018-11-11T12:39:37.371Z,10.90
2018-11-11T12:40:37.283Z,10.60
2018-11-11T12:41:37.212Z,9.70
2018-11-11T12:42:37.149Z,10.50
2018-11-11T12:43:37.124Z,10.70
2018-11-11T12:44:37.053Z,10.70
2018-11-11T12:45:36.962Z,10.50
2018-11-11T12:46:36.991Z,10.50
2018-11-11T12:47:36.837Z,10.60
2018-11-11T12:48:36.779Z,11.30
2018-11-11T12:49:36.716Z,10.40
2018-11-11T12:50:36.651Z,10.80
2018-11-11T12:51:36.592Z,9.80